createdAt,value
2022-09-21T00:00:50.272Z,1.10
2022-09-21T00:03:16.976Z,0.90
2022-09-21T00:05:43.544Z,1.00
2022-09-21T00:08:11.329Z,0.90
2022-09-21T00:10:37.990Z,1.10
2022-09-21T00:13:04.771Z,0.90
2022-09-21T00:15:31.676Z,1.07
2022-09-21T00:17:58.650Z,1.00
2022-09-21T00:20:25.764Z,1.10
2022-09-21T00:22:52.469Z,1.10
2022-09-21T00:25:19.871Z,1.00
2022-09-21T00:27:51.101Z,1.00
2022-09-21T00:30:17.905Z,1.30
2022-09-21T00:32:44.489Z,1.20
2022-09-21T00:35:11.069Z,1.13
2022-09-21T00:37:37.641Z,1.30
2022-09-21T00:40:04.533Z,1.00
2022-09-21T00:42:34.908Z,1.10
2022-09-21T00:45:01.604Z,1.30
2022-09-21T00:47:31.442Z,1.00
2022-09-21T00:49:58.085Z,1.10
2022-09-21T00:52:24.937Z,1.13
2022-09-21T00:54:56.635Z,1.07
2022-09-21T00:57:24.589Z,1.10
2022-09-21T00:59:51.968Z,1.00
2022-09-21T01:02:18.801Z,1.33
2022-09-21T01:04:45.438Z,1.30
2022-09-21T01:07:14.281Z,1.20
2022-09-21T01:09:41.467Z,1.43
2022-09-21T01:12:17.443Z,1.27
2022-09-21T01:15:26.099Z,1.20
2022-09-21T01:18:07.544Z,1.40
2022-09-21T01:20:56.071Z,1.30
2022-09-21T01:23:40.689Z,1.10
2022-09-21T01:26:32.428Z,1.10
2022-09-21T01:29:18.152Z,1.17
2022-09-21T01:32:06.638Z,1.43
2022-09-21T01:34:47.694Z,1.20
2022-09-21T01:37:23.131Z,1.20
2022-09-21T01:39:52.713Z,1.40
2022-09-21T01:42:19.277Z,1.33
2022-09-21T01:44:45.932Z,1.30
2022-09-21T01:47:12.629Z,1.37
2022-09-21T01:49:47.592Z,1.00
2022-09-21T01:52:18.806Z,1.10
2022-09-21T01:54:58.095Z,1.40
2022-09-21T01:57:49.627Z,1.10
2022-09-21T02:00:16.276Z,1.07
2022-09-21T02:02:54.775Z,0.80
2022-09-21T02:05:22.566Z,0.70
2022-09-21T02:07:49.476Z,1.07
2022-09-21T02:10:29.784Z,0.90
2022-09-21T02:12:59.909Z,1.20
2022-09-21T02:15:32.241Z,0.90
2022-09-21T02:18:07.476Z,1.07
2022-09-21T02:20:40.562Z,1.17
2022-09-21T02:23:17.683Z,0.90
2022-09-21T02:25:47.448Z,1.10
2022-09-21T02:28:18.077Z,1.00
2022-09-21T02:30:47.956Z,1.20
2022-09-21T02:33:22.976Z,1.00
2022-09-21T02:35:52.028Z,0.87
2022-09-21T02:38:39.720Z,1.20
2022-09-21T02:41:15.935Z,1.27
2022-09-21T02:44:00.428Z,0.93
2022-09-21T02:46:39.009Z,1.23
2022-09-21T02:49:14.273Z,0.80
2022-09-21T02:51:43.841Z,1.10
2022-09-21T02:54:11.409Z,0.80
2022-09-21T02:56:38.385Z,1.00
2022-09-21T02:59:05.472Z,1.20
2022-09-21T03:01:32.213Z,0.97
2022-09-21T03:03:59.007Z,1.17
2022-09-21T03:06:25.690Z,1.03
2022-09-21T03:08:52.393Z,0.90
2022-09-21T03:11:19.671Z,1.10
2022-09-21T03:13:46.283Z,1.00
2022-09-21T03:16:13.038Z,1.10
2022-09-21T03:18:40.273Z,1.27
2022-09-21T03:21:06.945Z,1.17
2022-09-21T03:23:33.538Z,1.20
2022-09-21T03:26:00.136Z,1.17
2022-09-21T03:28:26.717Z,1.00
2022-09-21T03:30:53.339Z,0.90
2022-09-21T03:33:20.112Z,1.10
2022-09-21T03:35:48.463Z,1.00
2022-09-21T03:38:16.725Z,0.83
2022-09-21T03:40:46.752Z,1.10
2022-09-21T03:43:13.425Z,1.07
2022-09-21T03:45:42.000Z,1.07
2022-09-21T03:48:08.888Z,0.80
2022-09-21T03:50:35.469Z,0.80
2022-09-21T03:53:02.036Z,1.03
2022-09-21T03:55:29.718Z,1.30
2022-09-21T03:57:56.377Z,1.30
2022-09-21T04:00:23.243Z,1.03
2022-09-21T04:02:49.831Z,1.17
2022-09-21T04:05:16.622Z,1.13
2022-09-21T04:07:45.636Z,0.93
2022-09-21T04:10:13.744Z,1.03
2022-09-21T04:12:43.653Z,1.40
2022-09-21T04:15:15.311Z,1.20
2022-09-21T04:17:41.916Z,1.00
2022-09-21T04:20:08.879Z,1.03
2022-09-21T04:22:39.955Z,1.20
2022-09-21T04:25:10.465Z,2.10
2022-09-21T04:27:37.051Z,2.53
2022-09-21T04:30:04.683Z,2.70
2022-09-21T04:32:31.269Z,2.90
2022-09-21T04:34:58.079Z,3.37
2022-09-21T04:37:24.676Z,3.27
2022-09-21T04:39:51.447Z,3.93
2022-09-21T04:42:18.019Z,3.67
2022-09-21T04:44:44.865Z,3.40
2022-09-21T04:47:11.823Z,3.38
2022-09-21T04:49:38.581Z,3.27
2022-09-21T04:52:05.505Z,2.93
2022-09-21T04:54:32.103Z,2.97
2022-09-21T04:56:58.685Z,2.47
2022-09-21T04:59:25.279Z,2.97
2022-09-21T05:01:51.892Z,3.10
2022-09-21T05:04:18.508Z,2.73
2022-09-21T05:06:45.094Z,2.77
2022-09-21T05:09:30.509Z,2.33
2022-09-21T05:11:57.077Z,2.73
2022-09-21T05:14:23.705Z,3.00
2022-09-21T05:16:50.351Z,2.87
2022-09-21T05:19:17.330Z,2.70
2022-09-21T05:21:43.937Z,2.70
2022-09-21T05:24:10.554Z,2.57
2022-09-21T05:26:37.438Z,2.77
2022-09-21T05:29:04.355Z,2.57
2022-09-21T05:31:50.539Z,3.30
2022-09-21T05:34:38.681Z,2.77
2022-09-21T05:37:26.520Z,3.57
2022-09-21T05:39:53.210Z,2.70
2022-09-21T05:42:19.901Z,3.00
2022-09-21T05:44:49.245Z,2.93
2022-09-21T05:47:38.339Z,2.80
2022-09-21T05:50:23.539Z,2.60
2022-09-21T05:53:44.447Z,2.83
2022-09-21T05:56:41.399Z,2.40
2022-09-21T05:59:26.415Z,2.70
2022-09-21T06:02:07.170Z,2.67
2022-09-21T06:04:33.953Z,2.40
2022-09-21T06:07:00.745Z,2.20
2022-09-21T06:09:27.867Z,2.30
2022-09-21T06:11:54.552Z,2.13
2022-09-21T06:14:25.426Z,2.40
2022-09-21T06:16:52.209Z,2.50
2022-09-21T06:19:18.907Z,2.33
2022-09-21T06:21:45.504Z,2.43
2022-09-21T06:24:12.112Z,2.37
2022-09-21T06:26:38.703Z,2.10
2022-09-21T06:29:05.499Z,2.50
2022-09-21T06:31:32.507Z,1.90
2022-09-21T06:33:59.172Z,2.33
2022-09-21T06:36:25.764Z,1.90
2022-09-21T06:38:52.375Z,2.37
2022-09-21T06:41:21.377Z,2.20
2022-09-21T06:43:48.245Z,2.00
2022-09-21T06:46:14.941Z,2.40
2022-09-21T06:48:41.609Z,2.33
2022-09-21T06:51:08.193Z,2.27
2022-09-21T06:53:34.891Z,2.30
2022-09-21T06:56:08.632Z,2.20
2022-09-21T06:58:35.424Z,2.27
2022-09-21T07:01:09.200Z,2.30
2022-09-21T07:03:36.027Z,2.37
2022-09-21T07:06:02.627Z,2.30
2022-09-21T07:11:16.125Z,2.23
2022-09-21T07:13:42.707Z,1.90
2022-09-21T07:16:10.049Z,2.70
2022-09-21T07:18:43.608Z,2.10
2022-09-21T07:21:10.992Z,1.97
2022-09-21T07:23:37.602Z,1.83
2022-09-21T07:26:09.149Z,1.83
2022-09-21T07:28:35.798Z,2.03
2022-09-21T07:31:13.999Z,1.90
2022-09-21T07:33:41.121Z,2.00
2022-09-21T07:36:10.600Z,2.17
2022-09-21T07:38:46.057Z,2.13
2022-09-21T07:41:13.904Z,1.77
2022-09-21T07:43:40.779Z,2.17
2022-09-21T07:46:08.103Z,2.17
2022-09-21T07:48:34.769Z,2.13
2022-09-21T07:51:06.027Z,2.00
2022-09-21T07:53:34.051Z,2.07
2022-09-21T07:56:02.473Z,1.80
2022-09-21T07:58:47.698Z,1.70
2022-09-21T08:01:14.327Z,1.93
2022-09-21T08:03:40.971Z,1.70
2022-09-21T08:06:09.243Z,1.80
2022-09-21T08:08:36.228Z,1.80
2022-09-21T08:11:06.596Z,1.87
2022-09-21T08:13:33.378Z,1.60
2022-09-21T08:16:00.928Z,1.80
2022-09-21T08:18:27.863Z,1.90
2022-09-21T08:21:00.032Z,1.80
2022-09-21T08:23:28.992Z,2.20
2022-09-21T08:26:02.617Z,1.80
2022-09-21T08:28:30.244Z,2.20
2022-09-21T08:31:08.599Z,1.87
2022-09-21T08:33:35.417Z,1.80
2022-09-21T08:36:02.336Z,1.87
2022-09-21T08:38:33.335Z,1.87
2022-09-21T08:41:00.625Z,1.47
2022-09-21T08:43:39.021Z,1.70
2022-09-21T08:46:06.955Z,1.80
2022-09-21T08:48:37.929Z,1.77
2022-09-21T08:51:06.064Z,1.70
2022-09-21T08:53:42.949Z,1.60
2022-09-21T08:56:11.935Z,1.50
2022-09-21T08:58:41.045Z,1.60
2022-09-21T09:01:48.984Z,2.07
2022-09-21T09:04:20.473Z,1.73
2022-09-21T09:07:05.009Z,1.60
2022-09-21T09:09:39.439Z,1.93
2022-09-21T09:12:37.111Z,1.90
2022-09-21T09:15:34.644Z,1.50
2022-09-21T09:18:10.016Z,1.50
2022-09-21T09:20:38.136Z,1.60
2022-09-21T09:23:19.941Z,1.60
2022-09-21T09:25:48.957Z,2.00
2022-09-21T09:28:35.903Z,1.63
2022-09-21T09:31:14.785Z,1.73
2022-09-21T09:34:30.222Z,1.77
2022-09-21T09:36:59.886Z,1.70
2022-09-21T09:39:28.384Z,1.63
2022-09-21T09:42:22.752Z,1.70
2022-09-21T09:45:07.520Z,1.50
2022-09-21T09:48:02.557Z,1.50
2022-09-21T09:50:36.246Z,1.73
2022-09-21T09:53:12.015Z,1.50
2022-09-21T09:55:39.988Z,1.70
2022-09-21T09:58:19.835Z,1.80
2022-09-21T10:00:48.168Z,1.50
2022-09-21T10:03:20.238Z,1.50
2022-09-21T10:05:46.899Z,1.57
2022-09-21T10:08:44.594Z,1.60
2022-09-21T10:11:15.892Z,1.60
2022-09-21T10:13:43.316Z,1.57
2022-09-21T10:16:09.886Z,1.57
2022-09-21T10:18:57.273Z,1.70
2022-09-21T10:21:25.524Z,1.60
2022-09-21T10:24:06.026Z,1.40
2022-09-21T10:26:35.870Z,1.47
2022-09-21T10:29:21.875Z,1.60
2022-09-21T10:32:02.970Z,1.90
2022-09-21T10:34:33.704Z,1.60
2022-09-21T10:37:02.701Z,1.63
2022-09-21T10:39:29.978Z,1.30
2022-09-21T10:42:00.760Z,1.60
2022-09-21T10:44:41.885Z,1.67
2022-09-21T10:47:33.790Z,1.50
2022-09-21T10:50:07.590Z,1.30
2022-09-21T10:52:42.844Z,1.60
2022-09-21T10:55:20.763Z,1.50
2022-09-21T10:57:47.397Z,1.50
2022-09-21T11:00:26.140Z,1.33
2022-09-21T11:02:54.878Z,1.40
2022-09-21T11:05:36.800Z,1.30
2022-09-21T11:08:16.714Z,1.90
2022-09-21T11:11:17.696Z,1.53
2022-09-21T11:13:54.268Z,1.53
2022-09-21T11:16:34.819Z,1.40
2022-09-21T11:19:17.863Z,1.40
2022-09-21T11:21:52.789Z,1.57
2022-09-21T11:24:50.052Z,1.90
2022-09-21T11:27:56.017Z,2.47
2022-09-21T11:30:22.687Z,2.00
2022-09-21T11:32:52.213Z,1.77
2022-09-21T11:35:31.241Z,1.80
2022-09-21T11:38:22.800Z,1.73
2022-09-21T11:41:27.198Z,1.87
2022-09-21T11:44:03.202Z,1.30
2022-09-21T11:46:46.732Z,1.23
2022-09-21T11:49:37.985Z,1.50
2022-09-21T11:52:35.007Z,2.03
2022-09-21T11:55:39.643Z,1.43
2022-09-21T11:58:38.859Z,1.57
2022-09-21T12:01:12.565Z,1.47
2022-09-21T12:04:15.558Z,1.47
2022-09-21T12:07:07.416Z,1.53
2022-09-21T12:09:56.073Z,1.60
2022-09-21T12:13:00.477Z,1.50
2022-09-21T12:15:40.340Z,1.70
2022-09-21T12:18:12.021Z,1.90
2022-09-21T12:21:08.979Z,1.80
2022-09-21T12:23:43.312Z,1.50
2022-09-21T12:26:10.730Z,1.77
2022-09-21T12:28:41.647Z,1.43
2022-09-21T12:31:20.792Z,1.53
2022-09-21T12:34:01.540Z,1.60
2022-09-21T12:36:41.861Z,1.40
2022-09-21T12:39:37.056Z,1.47
2022-09-21T12:42:26.395Z,1.70
2022-09-21T12:44:58.701Z,1.60
2022-09-21T12:47:42.937Z,1.50
2022-09-21T12:50:23.451Z,1.47
2022-09-21T12:52:50.097Z,1.37
2022-09-21T12:55:44.373Z,1.70
2022-09-21T12:58:41.902Z,1.67
2022-09-21T13:01:17.852Z,1.77
2022-09-21T13:03:53.210Z,1.70
2022-09-21T13:06:46.287Z,1.50
2022-09-21T13:09:15.393Z,1.57
2022-09-21T13:11:56.680Z,1.53
2022-09-21T13:14:28.873Z,1.43
2022-09-21T13:16:57.695Z,1.80
2022-09-21T13:19:25.807Z,1.57
2022-09-21T13:22:14.323Z,1.43
2022-09-21T13:24:42.212Z,1.70
2022-09-21T13:27:08.802Z,1.63
2022-09-21T13:29:36.620Z,1.57
2022-09-21T13:32:20.365Z,1.73
2022-09-21T13:34:48.189Z,1.40
2022-09-21T13:37:20.876Z,1.30
2022-09-21T13:40:02.613Z,1.60
2022-09-21T13:42:32.487Z,1.50
2022-09-21T13:45:13.557Z,1.47
2022-09-21T13:47:45.646Z,1.73
2022-09-21T13:50:37.056Z,1.40
2022-09-21T13:53:17.641Z,1.57
2022-09-21T13:55:51.788Z,1.50
2022-09-21T13:58:26.502Z,1.40
2022-09-21T14:01:01.417Z,1.70
2022-09-21T14:03:31.101Z,1.70
2022-09-21T14:06:15.807Z,2.27
2022-09-21T14:09:02.023Z,1.80
2022-09-21T14:11:38.036Z,1.77
2022-09-21T14:14:04.610Z,1.70
2022-09-21T14:16:34.393Z,1.50
2022-09-21T14:19:01.737Z,1.50
2022-09-21T14:21:29.815Z,1.77
2022-09-21T14:24:21.882Z,1.50
2022-09-21T14:27:00.347Z,1.33
2022-09-21T14:29:39.144Z,1.70
2022-09-21T14:32:07.833Z,1.40
2022-09-21T14:34:36.881Z,1.60
2022-09-21T14:37:06.342Z,1.50
2022-09-21T14:39:38.729Z,1.20
2022-09-21T14:42:15.635Z,1.27
2022-09-21T14:44:42.614Z,1.60
2022-09-21T14:47:22.767Z,1.43
2022-09-21T14:50:23.364Z,1.10
2022-09-21T14:53:01.938Z,1.50
2022-09-21T14:55:47.437Z,1.37
2022-09-21T14:58:22.028Z,1.70
2022-09-21T15:00:49.851Z,1.50
2022-09-21T15:03:28.507Z,1.23
2022-09-21T15:06:30.963Z,1.30
2022-09-21T15:09:42.154Z,1.63
2022-09-21T15:12:21.980Z,1.70
2022-09-21T15:15:04.825Z,1.77
2022-09-21T15:17:32.141Z,2.70
2022-09-21T15:20:00.713Z,2.00
2022-09-21T15:22:27.731Z,1.47
2022-09-21T15:24:55.909Z,1.20
2022-09-21T15:27:24.539Z,2.10
2022-09-21T15:29:53.077Z,1.83
2022-09-21T15:32:41.396Z,1.43
2022-09-21T15:35:26.402Z,1.77
2022-09-21T15:37:53.700Z,2.03
2022-09-21T15:40:22.277Z,1.70
2022-09-21T15:43:04.344Z,1.50
2022-09-21T15:45:48.144Z,1.37
2022-09-21T15:48:14.738Z,1.53
2022-09-21T15:50:42.872Z,1.30
2022-09-21T15:53:19.563Z,1.40
2022-09-21T15:55:47.509Z,1.73
2022-09-21T15:58:37.949Z,1.00
2022-09-21T16:01:14.799Z,1.60
2022-09-21T16:03:41.895Z,1.10
2022-09-21T16:06:29.363Z,1.63
2022-09-21T16:08:55.946Z,1.00
2022-09-21T16:11:28.964Z,1.20
2022-09-21T16:14:18.792Z,1.23
2022-09-21T16:17:06.229Z,1.20
2022-09-21T16:19:50.819Z,2.17
2022-09-21T16:22:44.187Z,1.30
2022-09-21T16:25:23.464Z,1.43
2022-09-21T16:28:01.614Z,1.27
2022-09-21T16:30:48.594Z,1.23
2022-09-21T16:33:40.777Z,1.67
2022-09-21T16:36:32.259Z,1.50
2022-09-21T16:39:00.001Z,1.63
2022-09-21T16:41:32.884Z,1.53
2022-09-21T16:44:00.409Z,1.40
2022-09-21T16:46:27.419Z,1.30
2022-09-21T16:48:54.943Z,1.30
2022-09-21T16:51:24.587Z,1.40
2022-09-21T16:53:51.697Z,1.40
2022-09-21T16:56:18.352Z,1.60
2022-09-21T16:58:45.245Z,1.67
2022-09-21T17:01:12.926Z,1.40
2022-09-21T17:03:40.122Z,1.37
2022-09-21T17:06:22.314Z,1.20
2022-09-21T17:08:49.293Z,1.10
2022-09-21T17:11:19.745Z,1.30
2022-09-21T17:13:49.697Z,1.27
2022-09-21T17:16:18.018Z,1.23
2022-09-21T17:18:48.339Z,1.17
2022-09-21T17:21:15.399Z,1.30
2022-09-21T17:23:42.241Z,1.20
2022-09-21T17:26:17.585Z,1.40
2022-09-21T17:28:44.438Z,1.37
2022-09-21T17:31:13.910Z,1.30
2022-09-21T17:33:40.771Z,1.10
2022-09-21T17:36:11.071Z,1.40
2022-09-21T17:38:37.693Z,1.30
2022-09-21T17:41:06.689Z,1.60
2022-09-21T17:44:02.920Z,1.40
2022-09-21T17:46:58.668Z,1.40
2022-09-21T17:49:25.883Z,1.70
2022-09-21T17:52:11.129Z,1.40
2022-09-21T17:54:39.797Z,1.50
2022-09-21T17:57:40.331Z,1.20
2022-09-21T18:00:21.243Z,1.37
2022-09-21T18:02:48.520Z,1.10
2022-09-21T18:05:22.700Z,1.37
2022-09-21T18:07:50.905Z,1.40
2022-09-21T18:10:21.229Z,1.38
2022-09-21T18:13:04.581Z,1.20
2022-09-21T18:15:47.789Z,1.35
2022-09-21T18:18:34.396Z,1.40
2022-09-21T18:21:04.104Z,1.20
2022-09-21T18:23:49.327Z,1.30
2022-09-21T18:26:16.971Z,1.00
2022-09-21T18:28:50.731Z,1.10
2022-09-21T18:31:20.322Z,1.30
2022-09-21T18:34:13.227Z,1.20
2022-09-21T18:36:52.413Z,1.50
2022-09-21T18:39:57.379Z,1.10
2022-09-21T18:43:06.057Z,1.10
2022-09-21T18:45:41.282Z,1.20
2022-09-21T18:48:16.964Z,1.43
2022-09-21T18:50:51.114Z,1.20
2022-09-21T18:53:34.167Z,1.30
2022-09-21T18:56:01.013Z,1.30
2022-09-21T18:58:27.876Z,1.97
2022-09-21T19:00:54.648Z,1.20
2022-09-21T19:03:21.444Z,1.40
2022-09-21T19:06:22.164Z,1.07
2022-09-21T19:08:54.695Z,1.20
2022-09-21T19:11:32.126Z,1.47
2022-09-21T19:14:07.148Z,1.10
2022-09-21T19:16:36.734Z,1.50
2022-09-21T19:19:03.322Z,1.00
2022-09-21T19:22:02.760Z,1.10
2022-09-21T19:24:38.118Z,1.13
2022-09-21T19:27:20.957Z,1.23
2022-09-21T19:30:19.571Z,1.57
2022-09-21T19:32:49.211Z,1.33
2022-09-21T19:35:36.818Z,1.20
2022-09-21T19:38:03.908Z,1.30
2022-09-21T19:40:32.823Z,1.17
2022-09-21T19:43:04.198Z,1.07
2022-09-21T19:46:05.037Z,1.00
2022-09-21T19:48:45.186Z,1.10
2022-09-21T19:51:17.582Z,1.33
2022-09-21T19:54:02.801Z,1.00
2022-09-21T19:56:50.989Z,1.30
2022-09-21T19:59:38.924Z,1.17
2022-09-21T20:02:06.104Z,1.13
2022-09-21T20:05:11.792Z,1.10
2022-09-21T20:07:48.982Z,1.07
2022-09-21T20:10:34.165Z,1.20
2022-09-21T20:13:21.718Z,1.13
2022-09-21T20:16:19.131Z,1.30
2022-09-21T20:19:06.500Z,1.10
2022-09-21T20:21:41.078Z,1.07
2022-09-21T20:24:33.453Z,1.40
2022-09-21T20:27:00.152Z,1.50
2022-09-21T20:29:26.749Z,1.10
2022-09-21T20:31:53.457Z,1.30
2022-09-21T20:34:20.466Z,1.13
2022-09-21T20:36:47.143Z,1.40
2022-09-21T20:39:13.776Z,1.17
2022-09-21T20:41:40.428Z,1.00
2022-09-21T20:44:10.714Z,1.30
2022-09-21T20:46:37.291Z,1.70
2022-09-21T20:49:08.089Z,1.43
2022-09-21T20:51:35.760Z,1.13
2022-09-21T20:54:02.690Z,1.10
2022-09-21T20:56:29.748Z,1.30
2022-09-21T20:58:56.738Z,1.30
2022-09-21T21:01:23.719Z,1.63
2022-09-21T21:03:50.906Z,1.53
2022-09-21T21:06:20.641Z,1.60
2022-09-21T21:08:47.354Z,2.17
2022-09-21T21:11:16.968Z,1.60
2022-09-21T21:13:43.773Z,1.47
2022-09-21T21:16:12.391Z,1.57
2022-09-21T21:18:42.324Z,1.60
2022-09-21T21:21:08.941Z,1.93
2022-09-21T21:23:54.065Z,1.67
2022-09-21T21:26:20.695Z,1.50
2022-09-21T21:28:47.333Z,1.70
2022-09-21T21:31:19.392Z,1.33
2022-09-21T21:33:47.921Z,1.40
2022-09-21T21:36:14.979Z,1.60
2022-09-21T21:38:43.090Z,1.30
2022-09-21T21:41:12.645Z,1.37
2022-09-21T21:43:39.936Z,1.40
2022-09-21T21:46:08.509Z,1.50
2022-09-21T21:48:38.995Z,1.20
2022-09-21T21:51:06.705Z,1.50
2022-09-21T21:53:37.653Z,1.43
2022-09-21T21:56:11.535Z,1.43
2022-09-21T21:58:38.264Z,1.60
2022-09-21T22:01:12.938Z,1.10
2022-09-21T22:03:40.031Z,1.50
2022-09-21T22:06:07.545Z,1.43
2022-09-21T22:08:34.705Z,1.40
2022-09-21T22:11:01.323Z,1.40
2022-09-21T22:13:34.269Z,1.50
2022-09-21T22:16:05.010Z,1.30
2022-09-21T22:18:32.378Z,1.60
2022-09-21T22:21:11.993Z,1.45
2022-09-21T22:23:38.906Z,1.40
2022-09-21T22:26:18.453Z,1.80
2022-09-21T22:28:46.726Z,1.23
2022-09-21T22:31:18.400Z,1.50
2022-09-21T22:33:45.303Z,1.40
2022-09-21T22:36:16.695Z,1.40
2022-09-21T22:38:43.467Z,1.43
2022-09-21T22:41:17.801Z,1.10
2022-09-21T22:43:45.049Z,1.20
2022-09-21T22:46:11.658Z,1.50
2022-09-21T22:48:38.325Z,1.70
2022-09-21T22:51:05.132Z,1.37
2022-09-21T22:53:31.808Z,1.43
2022-09-21T22:56:18.249Z,1.50
2022-09-21T22:58:46.368Z,1.30
2022-09-21T23:01:13.067Z,1.20
2022-09-21T23:03:40.992Z,1.30
2022-09-21T23:06:08.704Z,1.33
2022-09-21T23:08:35.364Z,1.50
2022-09-21T23:11:22.035Z,1.37
2022-09-21T23:13:49.174Z,1.60
2022-09-21T23:16:16.110Z,1.60
2022-09-21T23:18:43.080Z,1.40
2022-09-21T23:21:14.352Z,1.60
2022-09-21T23:23:40.988Z,1.50
2022-09-21T23:26:10.759Z,1.47
2022-09-21T23:28:38.338Z,1.33
2022-09-21T23:31:07.371Z,1.70
2022-09-21T23:33:40.677Z,1.47
2022-09-21T23:36:07.972Z,1.40
2022-09-21T23:38:34.810Z,1.37
2022-09-21T23:41:12.885Z,1.33
2022-09-21T23:43:40.089Z,0.90
2022-09-21T23:46:07.005Z,1.30
2022-09-21T23:48:33.637Z,1.20
2022-09-21T23:51:00.236Z,1.23
2022-09-21T23:53:27.852Z,1.47
2022-09-21T23:55:54.812Z,1.60
2022-09-21T23:58:21.600Z,1.33
